Terminal Aerodrome Forecast
Issued by NWS Twin Cities, MN

Home | Current Version | Previous Version | Graphics & Text | Print | Product List | Glossary On
Versions: 1 2 3 4 5 6 7 8 9 10 11 12 13 14 15 16 17 18 19 20 21 22 23 24 25 26 27 28 29 30 31
000
FTUS43 KMPX 271100 RRA
TAFMSP
TAF
KMSP 271143Z 2712/2818 31006KT P6SM SKC
     FM271800 27004KT P6SM SKC
     FM272100 20004KT P6SM BKN150
     FM280300 15007KT P6SM OVC080
     FM280700 14012KT 5SM -SN SCT015 OVC035
      TEMPO 2807/2811 2SM -SN BKN020
     FM281100 14013KT 6SM -FZDZSN OVC050
     FM281500 14013KT P6SM VCSH OVC050=

USA.gov is the U.S. government's official web portal to all federal, state and local government web resources and services.